createdAt,value
2023-05-10T00:02:18.171Z,8.12
2023-05-10T00:07:20.469Z,8.01
2023-05-10T00:12:22.451Z,7.95
2023-05-10T00:17:24.346Z,7.85
2023-05-10T00:22:26.102Z,7.74
2023-05-10T00:27:28.210Z,7.69
2023-05-10T00:32:30.290Z,7.64
2023-05-10T00:37:32.044Z,7.56
2023-05-10T00:42:34.121Z,7.46
2023-05-10T00:47:36.532Z,7.33
2023-05-10T00:52:38.811Z,7.22
2023-05-10T00:57:40.990Z,7.08
2023-05-10T01:02:43.371Z,6.98
2023-05-10T01:07:45.387Z,6.89
2023-05-10T01:12:48.313Z,6.81
2023-05-10T01:17:51.531Z,6.73
2023-05-10T01:23:31.338Z,6.69
2023-05-10T01:29:12.984Z,6.63
2023-05-10T01:34:26.192Z,6.58
2023-05-10T01:39:38.921Z,6.53
2023-05-10T01:44:54.736Z,6.49
2023-05-10T01:50:02.662Z,6.43
2023-05-10T01:55:13.936Z,6.38
2023-05-10T02:00:17.873Z,6.32
2023-05-10T02:05:22.299Z,6.26
2023-05-10T02:10:24.492Z,6.21
2023-05-10T02:15:28.164Z,6.15
2023-05-10T02:20:32.944Z,6.09
2023-05-10T02:25:36.672Z,6.03
2023-05-10T02:30:39.916Z,5.98
2023-05-10T02:35:42.883Z,5.94
2023-05-10T02:40:46.833Z,5.86
2023-05-10T02:45:49.366Z,5.78
2023-05-10T02:50:55.489Z,5.74
2023-05-10T02:56:04.727Z,5.73
2023-05-10T03:01:08.282Z,5.70
2023-05-10T03:06:10.226Z,5.66
2023-05-10T03:11:46.004Z,5.65
2023-05-10T03:17:04.985Z,5.66
2023-05-10T03:22:12.077Z,5.62
2023-05-10T03:27:15.908Z,5.61
2023-05-10T03:32:18.199Z,5.63
2023-05-10T03:37:19.987Z,5.64
2023-05-10T03:42:21.745Z,5.67
2023-05-10T03:47:23.827Z,5.72
2023-05-10T03:52:25.904Z,5.79
2023-05-10T03:57:27.686Z,5.86
2023-05-10T04:02:30.991Z,5.92
2023-05-10T04:07:33.191Z,5.98
2023-05-10T04:12:34.875Z,6.08
2023-05-10T04:17:36.865Z,6.20
2023-05-10T04:22:38.813Z,6.35
2023-05-10T04:27:40.822Z,6.54
2023-05-10T04:32:42.678Z,6.76
2023-05-10T04:37:44.755Z,7.03
2023-05-10T04:42:47.145Z,7.36
2023-05-10T04:47:48.903Z,7.68
2023-05-10T04:52:51.300Z,8.02
2023-05-10T04:57:57.398Z,8.39
2023-05-10T05:02:59.455Z,8.68
2023-05-10T05:08:01.653Z,8.90
2023-05-10T05:13:03.553Z,9.08
2023-05-10T05:18:05.358Z,9.26
2023-05-10T05:23:07.219Z,9.50
2023-05-10T05:28:08.953Z,9.77
2023-05-10T05:33:10.749Z,9.99
2023-05-10T05:38:12.706Z,10.23
2023-05-10T05:43:14.605Z,10.49
2023-05-10T05:48:16.377Z,10.78
2023-05-10T05:53:18.339Z,11.07
2023-05-10T05:58:21.236Z,11.28
2023-05-10T06:03:23.334Z,11.49
2023-05-10T06:08:26.331Z,11.71
2023-05-10T06:13:33.072Z,11.96
2023-05-10T06:18:35.412Z,12.23
2023-05-10T06:23:37.297Z,12.52
2023-05-10T06:28:39.673Z,12.78
2023-05-10T06:33:41.496Z,12.97
2023-05-10T06:38:43.226Z,13.18
2023-05-10T06:43:45.000Z,13.44
2023-05-10T06:48:46.790Z,13.67
2023-05-10T06:53:48.654Z,13.93
2023-05-10T06:58:50.765Z,14.17
2023-05-10T07:03:52.647Z,14.37
2023-05-10T07:08:54.488Z,14.63
2023-05-10T07:13:56.676Z,14.96
2023-05-10T07:18:58.589Z,15.24
2023-05-10T07:24:01.455Z,15.46
2023-05-10T07:29:03.551Z,15.66
2023-05-10T07:34:05.521Z,15.85
2023-05-10T07:39:08.111Z,16.06
2023-05-10T07:44:09.996Z,16.24
2023-05-10T07:49:11.757Z,16.46
2023-05-10T07:54:15.177Z,16.64
2023-05-10T07:59:18.469Z,16.80
2023-05-10T08:04:20.413Z,16.94
2023-05-10T08:09:24.390Z,17.10
2023-05-10T08:14:30.883Z,17.27
2023-05-10T08:19:32.792Z,17.46
2023-05-10T08:24:38.725Z,17.62
2023-05-10T08:29:49.353Z,17.75
2023-05-10T08:34:51.699Z,17.80
2023-05-10T08:39:53.697Z,17.91
2023-05-10T08:44:58.541Z,18.11
2023-05-10T08:50:03.489Z,18.26
2023-05-10T08:55:05.685Z,18.45
2023-05-10T09:00:09.787Z,18.65
2023-05-10T09:05:11.885Z,18.83
2023-05-10T09:10:15.293Z,18.96
2023-05-10T09:15:19.774Z,19.08
2023-05-10T09:20:21.802Z,19.22
2023-05-10T09:25:23.647Z,19.31
2023-05-10T09:30:31.553Z,19.48
2023-05-10T09:35:34.315Z,19.64
2023-05-10T09:40:36.181Z,19.81
2023-05-10T09:45:39.209Z,19.99
2023-05-10T09:50:42.493Z,20.16
2023-05-10T09:55:47.174Z,20.26
2023-05-10T10:00:52.747Z,20.38
2023-05-10T10:05:56.456Z,20.48
2023-05-10T10:10:58.927Z,20.62
2023-05-10T10:16:00.814Z,20.86
2023-05-10T10:21:03.293Z,21.00
2023-05-10T10:26:06.900Z,21.05
2023-05-10T10:32:05.207Z,21.18
2023-05-10T10:37:07.656Z,21.37
2023-05-10T10:42:09.918Z,21.54
2023-05-10T10:47:12.582Z,21.68
2023-05-10T10:52:20.962Z,21.88
2023-05-10T10:57:22.781Z,22.19
2023-05-10T11:03:09.005Z,22.45
2023-05-10T11:08:32.180Z,22.69
2023-05-10T11:13:41.422Z,22.79
2023-05-10T11:19:10.046Z,22.86
2023-05-10T11:24:18.906Z,23.00
2023-05-10T11:29:21.164Z,23.15
2023-05-10T11:34:30.623Z,23.24
2023-05-10T11:39:34.018Z,23.52
2023-05-10T11:44:36.045Z,23.69
2023-05-10T11:49:37.819Z,23.86
2023-05-10T11:54:52.118Z,23.96
2023-05-10T11:59:55.667Z,23.98
2023-05-10T12:04:58.142Z,24.00
2023-05-10T12:10:27.337Z,24.12
2023-05-10T12:15:29.168Z,24.34
2023-05-10T12:20:31.335Z,24.56
2023-05-10T12:25:38.231Z,24.71
2023-05-10T12:30:40.216Z,24.96
2023-05-10T12:35:51.582Z,25.16
2023-05-10T12:40:53.533Z,25.21
2023-05-10T12:45:56.432Z,25.21
2023-05-10T12:50:58.168Z,25.27
2023-05-10T12:55:59.961Z,25.41
2023-05-10T13:01:02.053Z,25.67
2023-05-10T13:06:04.744Z,25.87
2023-05-10T13:11:06.905Z,25.99
2023-05-10T13:16:08.816Z,26.05
2023-05-10T13:21:11.792Z,25.95
2023-05-10T13:26:13.867Z,25.94
2023-05-10T13:31:16.028Z,25.95
2023-05-10T13:36:18.031Z,26.12
2023-05-10T13:41:19.824Z,26.21
2023-05-10T13:46:21.828Z,26.31
2023-05-10T13:51:23.667Z,26.50
2023-05-10T13:56:25.555Z,26.64
2023-05-10T14:01:27.749Z,26.64
2023-05-10T14:06:29.752Z,26.69
2023-05-10T14:11:31.704Z,26.84
2023-05-10T14:16:33.617Z,27.05
2023-05-10T14:21:35.860Z,27.18
2023-05-10T14:26:37.839Z,27.25
2023-05-10T14:31:41.312Z,26.97
2023-05-10T14:36:43.128Z,26.70
2023-05-10T14:41:46.333Z,26.73
2023-05-10T14:46:49.030Z,26.84
2023-05-10T14:51:50.817Z,26.82
2023-05-10T14:56:52.575Z,26.87
2023-05-10T15:01:54.464Z,26.66
2023-05-10T15:06:59.709Z,26.59
2023-05-10T15:12:01.697Z,26.58
2023-05-10T15:17:03.972Z,26.57
2023-05-10T15:22:06.282Z,26.57
2023-05-10T15:27:08.253Z,26.47
2023-05-10T15:32:10.329Z,26.40
2023-05-10T15:37:12.311Z,26.43
2023-05-10T15:42:14.082Z,26.46
2023-05-10T15:47:15.990Z,26.32
2023-05-10T15:52:18.864Z,26.27
2023-05-10T15:57:20.756Z,26.20
2023-05-10T16:02:22.946Z,26.09
2023-05-10T16:07:25.177Z,26.04
2023-05-10T16:12:27.716Z,26.01
2023-05-10T16:17:29.414Z,26.08
2023-05-10T16:22:31.358Z,26.13
2023-05-10T16:27:33.346Z,26.08
2023-05-10T16:32:35.464Z,26.15
2023-05-10T16:37:37.449Z,26.06
2023-05-10T16:42:39.291Z,25.95
2023-05-10T16:47:41.278Z,25.78
2023-05-10T16:52:43.648Z,25.50
2023-05-10T16:57:45.747Z,25.30
2023-05-10T17:02:48.846Z,25.04
2023-05-10T17:07:50.866Z,24.84
2023-05-10T17:12:53.309Z,24.68
2023-05-10T17:17:55.625Z,24.19
2023-05-10T17:22:58.100Z,23.58
2023-05-10T17:28:00.115Z,22.91
2023-05-10T17:33:02.696Z,22.35
2023-05-10T17:38:04.640Z,21.95
2023-05-10T17:43:06.930Z,21.64
2023-05-10T17:48:10.857Z,21.31
2023-05-10T17:53:12.836Z,20.88
2023-05-10T17:58:15.171Z,20.47
2023-05-10T18:03:17.203Z,20.08
2023-05-10T18:08:22.367Z,19.69
2023-05-10T18:13:25.260Z,19.41
2023-05-10T18:18:27.284Z,19.15
2023-05-10T18:23:29.125Z,18.90
2023-05-10T18:28:31.161Z,18.59
2023-05-10T18:33:33.086Z,18.36
2023-05-10T18:38:34.978Z,18.10
2023-05-10T18:43:36.843Z,17.94
2023-05-10T18:48:38.611Z,17.77
2023-05-10T18:53:40.486Z,17.58
2023-05-10T18:58:42.362Z,17.36
2023-05-10T19:03:44.259Z,17.14
2023-05-10T19:08:46.118Z,16.96
2023-05-10T19:13:47.892Z,16.76
2023-05-10T19:18:51.864Z,16.56
2023-05-10T19:23:54.447Z,16.35
2023-05-10T19:28:57.278Z,16.12
2023-05-10T19:34:00.760Z,15.90
2023-05-10T19:39:03.340Z,15.64
2023-05-10T19:44:05.105Z,15.41
2023-05-10T19:49:07.293Z,15.23
2023-05-10T19:54:09.256Z,15.05
2023-05-10T19:59:11.149Z,14.84
2023-05-10T20:04:13.122Z,14.56
2023-05-10T20:09:15.713Z,14.25
2023-05-10T20:14:17.796Z,13.94
2023-05-10T20:19:19.564Z,13.63
2023-05-10T20:24:21.869Z,13.31
2023-05-10T20:29:23.859Z,13.10
2023-05-10T20:34:25.616Z,12.95
2023-05-10T20:39:28.625Z,12.77
2023-05-10T20:44:30.700Z,12.58
2023-05-10T20:49:33.472Z,12.41
2023-05-10T20:54:35.394Z,12.26
2023-05-10T20:59:37.358Z,12.14
2023-05-10T21:04:39.272Z,11.99
2023-05-10T21:09:41.322Z,11.81
2023-05-10T21:14:43.818Z,11.58
2023-05-10T21:19:45.690Z,11.43
2023-05-10T21:24:47.692Z,11.31
2023-05-10T21:29:49.566Z,11.19
2023-05-10T21:34:51.321Z,11.14
2023-05-10T21:39:53.604Z,11.11
2023-05-10T21:44:55.391Z,11.05
2023-05-10T21:49:57.200Z,10.96
2023-05-10T21:54:59.044Z,10.87
2023-05-10T22:00:01.040Z,10.78
2023-05-10T22:05:03.606Z,10.64
2023-05-10T22:10:07.371Z,10.51
2023-05-10T22:15:11.093Z,10.40
2023-05-10T22:20:13.451Z,10.29
2023-05-10T22:25:15.629Z,10.17
2023-05-10T22:30:18.912Z,10.04
2023-05-10T22:35:21.321Z,9.96
2023-05-10T22:40:23.312Z,9.88
2023-05-10T22:45:25.280Z,9.80
2023-05-10T22:50:29.219Z,9.72
2023-05-10T22:55:30.982Z,9.60
2023-05-10T23:00:33.473Z,9.49
2023-05-10T23:05:35.284Z,9.38
2023-05-10T23:10:38.051Z,9.27
2023-05-10T23:15:40.159Z,9.17
2023-05-10T23:20:44.678Z,9.08
2023-05-10T23:25:46.556Z,9.01
2023-05-10T23:30:57.959Z,8.94
2023-05-10T23:35:59.726Z,8.82
2023-05-10T23:41:01.536Z,8.68
2023-05-10T23:46:07.153Z,8.59
2023-05-10T23:51:08.882Z,8.53
2023-05-10T23:56:11.439Z,8.52
